Time;durP1;ratioP1;P1;durP2;ratioP2;P2;SDS_P1;SDS_P2;PMS_P1;PMS_P2;Temp;Humidity;BMP_temperature;BMP_pressure;BME280_temperature;BME280_humidity;BME280_pressure;Samples;Min_cycle;Max_cycle;Signal;HPM_P1;HPM_P2
2023/07/16 00:00:18;;;;;;;5.93;4.50;;;;;;;;;;5059564;28;20197;-78
2023/07/16 00:02:45;;;;;;;5.50;3.93;;;;;;;;;;5056399;28;20297;-78
2023/07/16 00:05:13;;;;;;;4.40;4.00;;;;;;;;;;5062683;28;20236;-78
2023/07/16 00:07:41;;;;;;;8.13;4.30;;;;;;;;;;5064703;28;20212;-78
2023/07/16 00:10:08;;;;;;;4.40;4.00;;;;;;;;;;5049933;28;20604;-78
2023/07/16 00:12:35;;;;;;;5.37;4.03;;;;;;;;;;5065701;28;20205;-79
2023/07/16 00:15:02;;;;;;;4.57;4.17;;;;;;;;;;5060346;28;20205;-78
2023/07/16 00:17:29;;;;;;;4.57;4.17;;;;;;;;;;5064271;28;20202;-78
2023/07/16 00:19:56;;;;;;;4.73;4.00;;;;;;;;;;5059803;28;20204;-78
2023/07/16 00:22:25;;;;;;;3.80;3.50;;;;;;;;;;5056191;28;20197;-78
2023/07/16 00:24:52;;;;;;;4.47;4.07;;;;;;;;;;5069880;28;20235;-78
2023/07/16 00:27:19;;;;;;;5.13;3.83;;;;;;;;;;5055820;28;20209;-78
2023/07/16 00:29:46;;;;;;;5.07;3.40;;;;;;;;;;5071262;28;20684;-78
2023/07/16 00:32:13;;;;;;;6.10;3.77;;;;;;;;;;5056961;28;20208;-78
2023/07/16 00:34:40;;;;;;;4.20;3.80;;;;;;;;;;5060948;28;20705;-78
2023/07/16 00:37:07;;;;;;;5.27;4.10;;;;;;;;;;5064496;28;20205;-79
2023/07/16 00:39:35;;;;;;;4.07;3.73;;;;;;;;;;5051090;28;20217;-78
2023/07/16 00:42:03;;;;;;;6.53;3.67;;;;;;;;;;5050484;28;20198;-78
2023/07/16 00:44:30;;;;;;;3.90;3.60;;;;;;;;;;5061931;28;20232;-78
2023/07/16 00:46:57;;;;;;;4.20;3.90;;;;;;;;;;5051601;28;20589;-78
2023/07/16 00:49:25;;;;;;;4.20;3.80;;;;;;;;;;5037031;28;20206;-78
2023/07/16 00:51:53;;;;;;;4.20;3.90;;;;;;;;;;5104024;28;20201;-78
2023/07/16 00:54:20;;;;;;;4.17;3.70;;;;;;;;;;5090794;28;20212;-78
2023/07/16 00:56:49;;;;;;;5.10;4.40;;;;;;;;;;5091964;28;20200;-78
2023/07/16 00:59:17;;;;;;;4.40;4.00;;;;;;;;;;5110783;28;20618;-78
2023/07/16 01:01:44;;;;;;;5.17;3.93;;;;;;;;;;5092964;28;20678;-78
2023/07/16 01:04:11;;;;;;;5.83;4.70;;;;;;;;;;5097502;28;20242;-78
2023/07/16 01:06:41;;;;;;;4.63;4.20;;;;;;;;;;5086403;28;20203;-78
2023/07/16 01:09:09;;;;;;;5.13;4.63;;;;;;;;;;5086070;28;20673;-79
2023/07/16 01:11:36;;;;;;;5.77;4.17;;;;;;;;;;5056216;28;20205;-78
2023/07/16 01:14:06;;;;;;;5.50;4.40;;;;;;;;;;5086503;28;20207;-79
2023/07/16 01:16:33;;;;;;;3.93;3.63;;;;;;;;;;5102997;28;20203;-79
2023/07/16 01:19:00;;;;;;;5.17;4.30;;;;;;;;;;5103746;28;20204;-79
2023/07/16 01:21:34;;;;;;;4.57;4.27;;;;;;;;;;5098819;28;20203;-78
2023/07/16 01:24:30;;;;;;;4.80;4.30;;;;;;;;;;5108449;28;20215;-79
2023/07/16 01:27:26;;;;;;;10.80;5.10;;;;;;;;;;5101603;28;20199;-78
2023/07/16 01:29:56;;;;;;;4.70;4.20;;;;;;;;;;5081101;28;20579;-79
2023/07/16 01:32:23;;;;;;;20.87;5.00;;;;;;;;;;5089875;28;20199;-78
2023/07/16 01:34:50;;;;;;;6.37;3.90;;;;;;;;;;5092701;28;20207;-78
2023/07/16 01:37:18;;;;;;;4.20;3.83;;;;;;;;;;5087505;28;20258;-78
2023/07/16 01:39:45;;;;;;;4.60;3.60;;;;;;;;;;5090785;28;20200;-79
2023/07/16 01:42:12;;;;;;;5.00;4.07;;;;;;;;;;5103792;28;20586;-79
2023/07/16 01:44:39;;;;;;;8.77;4.00;;;;;;;;;;5102164;28;20224;-79
2023/07/16 01:47:10;;;;;;;6.03;4.30;;;;;;;;;;5105378;28;20616;-78
2023/07/16 01:49:37;;;;;;;4.73;4.23;;;;;;;;;;5103644;28;20238;-79
2023/07/16 01:52:06;;;;;;;6.27;4.10;;;;;;;;;;5061407;28;20301;-79
2023/07/16 01:54:33;;;;;;;7.17;4.10;;;;;;;;;;5092635;28;20203;-79
2023/07/16 01:57:00;;;;;;;4.60;4.10;;;;;;;;;;5092397;28;20206;-79
2023/07/16 01:59:27;;;;;;;6.93;4.23;;;;;;;;;;5096693;28;20205;-78
2023/07/16 02:01:54;;;;;;;4.13;3.73;;;;;;;;;;5105381;28;20219;-79
2023/07/16 02:04:23;;;;;;;6.10;4.20;;;;;;;;;;5107709;28;20223;-80
2023/07/16 02:06:50;;;;;;;4.23;3.77;;;;;;;;;;5079681;28;20211;-80
2023/07/16 02:09:18;;;;;;;5.67;4.20;;;;;;;;;;5096332;28;20203;-80
2023/07/16 02:11:45;;;;;;;6.40;4.13;;;;;;;;;;5113872;28;20624;-80
2023/07/16 02:14:13;;;;;;;9.87;3.93;;;;;;;;;;5112064;28;20207;-80
2023/07/16 02:16:41;;;;;;;5.37;4.50;;;;;;;;;;5059566;28;20208;-80
2023/07/16 02:19:08;;;;;;;5.60;3.63;;;;;;;;;;5074620;28;20593;-79
2023/07/16 02:21:36;;;;;;;6.30;4.53;;;;;;;;;;5079510;28;20249;-81
2023/07/16 02:24:04;;;;;;;5.63;3.90;;;;;;;;;;5113530;28;20588;-80
2023/07/16 02:26:31;;;;;;;4.47;4.07;;;;;;;;;;5104038;28;20597;-83
2023/07/16 02:28:59;;;;;;;4.77;4.30;;;;;;;;;;5078504;28;20645;-78
2023/07/16 02:31:26;;;;;;;5.47;4.07;;;;;;;;;;5093455;28;20203;-78
2023/07/16 02:33:53;;;;;;;4.40;4.10;;;;;;;;;;5113684;28;20207;-78
2023/07/16 02:36:20;;;;;;;5.70;3.77;;;;;;;;;;5095284;28;20191;-78
2023/07/16 02:38:48;;;;;;;4.00;3.70;;;;;;;;;;5113356;28;20199;-78
2023/07/16 02:41:15;;;;;;;4.10;3.77;;;;;;;;;;5100092;28;20677;-78
2023/07/16 02:43:43;;;;;;;5.60;5.10;;;;;;;;;;5095195;28;20230;-78
2023/07/16 02:46:10;;;;;;;4.73;3.90;;;;;;;;;;5071521;28;20238;-79
2023/07/16 02:48:37;;;;;;;4.90;4.50;;;;;;;;;;5093385;28;20211;-79
2023/07/16 02:51:04;;;;;;;5.23;4.73;;;;;;;;;;5074839;28;20224;-79
2023/07/16 02:53:31;;;;;;;4.67;4.07;;;;;;;;;;5105077;28;20212;-77
2023/07/16 02:56:00;;;;;;;5.67;4.60;;;;;;;;;;5078531;28;20202;-77
2023/07/16 02:58:27;;;;;;;8.90;4.90;;;;;;;;;;5094924;28;20221;-77
2023/07/16 03:00:54;;;;;;;5.50;4.80;;;;;;;;;;5087758;28;20269;-77
2023/07/16 03:03:21;;;;;;;5.30;4.80;;;;;;;;;;5107127;28;20205;-78
2023/07/16 03:05:49;;;;;;;4.33;3.93;;;;;;;;;;5095050;28;20259;-78
2023/07/16 03:08:16;;;;;;;4.30;3.90;;;;;;;;;;5112417;28;20696;-78
2023/07/16 03:10:43;;;;;;;4.93;4.43;;;;;;;;;;5086534;28;20712;-78
2023/07/16 03:13:11;;;;;;;5.40;4.83;;;;;;;;;;5093452;28;20200;-78
2023/07/16 03:15:38;;;;;;;4.93;4.50;;;;;;;;;;5103962;28;20204;-79
2023/07/16 03:18:05;;;;;;;5.10;4.47;;;;;;;;;;5094652;28;20216;-78
2023/07/16 03:20:33;;;;;;;4.70;4.20;;;;;;;;;;5085521;28;20685;-78
2023/07/16 03:22:59;;;;;;;5.27;4.77;;;;;;;;;;5094285;28;20208;-78
2023/07/16 03:25:27;;;;;;;7.93;4.90;;;;;;;;;;5094277;28;20223;-79
2023/07/16 03:27:54;;;;;;;5.53;4.70;;;;;;;;;;5086200;28;20217;-78
2023/07/16 03:30:22;;;;;;;5.00;4.50;;;;;;;;;;5105669;28;20210;-79
2023/07/16 03:32:49;;;;;;;5.67;5.17;;;;;;;;;;5074108;28;20595;-79
2023/07/16 03:35:16;;;;;;;6.07;5.53;;;;;;;;;;5107251;28;20195;-78
2023/07/16 03:37:43;;;;;;;4.57;4.27;;;;;;;;;;5103680;28;20204;-78
2023/07/16 03:40:15;;;;;;;4.47;4.07;;;;;;;;;;5093963;28;20204;-78
2023/07/16 03:42:41;;;;;;;6.10;4.70;;;;;;;;;;5102625;28;20281;-78
2023/07/16 03:45:09;;;;;;;9.97;4.97;;;;;;;;;;5077132;28;20262;-78
2023/07/16 03:47:38;;;;;;;4.80;4.20;;;;;;;;;;5084536;28;20200;-77
2023/07/16 03:50:07;;;;;;;5.20;4.30;;;;;;;;;;5105578;28;20230;-78
2023/07/16 03:52:34;;;;;;;5.17;4.37;;;;;;;;;;5083497;28;20195;-78
2023/07/16 03:55:01;;;;;;;7.27;4.23;;;;;;;;;;5111490;28;20203;-78
2023/07/16 03:57:29;;;;;;;11.47;4.53;;;;;;;;;;5092824;28;20320;-78
2023/07/16 03:59:56;;;;;;;5.23;4.70;;;;;;;;;;5092735;28;20204;-77
2023/07/16 04:02:24;;;;;;;5.10;4.60;;;;;;;;;;5080777;28;20285;-77
2023/07/16 04:04:53;;;;;;;4.83;4.43;;;;;;;;;;5074255;28;20227;-78
2023/07/16 04:07:20;;;;;;;8.70;5.47;;;;;;;;;;5093216;28;20199;-77
2023/07/16 04:09:47;;;;;;;5.20;4.70;;;;;;;;;;5106086;28;20208;-78
2023/07/16 04:12:15;;;;;;;4.43;4.13;;;;;;;;;;5091375;28;20200;-79
2023/07/16 04:14:42;;;;;;;5.23;4.57;;;;;;;;;;5078554;28;20207;-79
2023/07/16 04:17:09;;;;;;;5.23;4.43;;;;;;;;;;5080498;28;20705;-79
2023/07/16 04:19:37;;;;;;;5.17;4.70;;;;;;;;;;5073408;28;20196;-79
2023/07/16 04:22:06;;;;;;;6.33;4.90;;;;;;;;;;5091258;28;20294;-79
2023/07/16 04:24:34;;;;;;;4.90;4.50;;;;;;;;;;5091562;28;20211;-79
2023/07/16 04:27:01;;;;;;;7.27;4.67;;;;;;;;;;5093611;28;20207;-78
2023/07/16 04:29:28;;;;;;;6.50;4.80;;;;;;;;;;5098635;28;20199;-78
2023/07/16 04:31:55;;;;;;;6.37;4.67;;;;;;;;;;5076072;28;20248;-79
2023/07/16 04:34:22;;;;;;;5.73;5.27;;;;;;;;;;5111389;28;20699;-79
2023/07/16 04:36:49;;;;;;;33.40;7.00;;;;;;;;;;5093644;28;20588;-79
2023/07/16 04:39:18;;;;;;;17.83;5.60;;;;;;;;;;5093799;28;20669;-79
2023/07/16 04:41:45;;;;;;;4.93;4.43;;;;;;;;;;5110304;28;20210;-79
2023/07/16 04:44:12;;;;;;;6.50;4.70;;;;;;;;;;5093116;28;20593;-79
2023/07/16 04:46:39;;;;;;;5.33;4.87;;;;;;;;;;5093373;28;20282;-79
2023/07/16 04:49:06;;;;;;;7.63;4.80;;;;;;;;;;5111530;28;20619;-79
2023/07/16 04:51:34;;;;;;;17.83;6.87;;;;;;;;;;5079475;28;20233;-79
2023/07/16 04:54:01;;;;;;;6.20;5.50;;;;;;;;;;5076576;28;20199;-79
2023/07/16 04:56:30;;;;;;;15.77;5.53;;;;;;;;;;5076642;28;20196;-79
2023/07/16 04:58:57;;;;;;;21.67;6.40;;;;;;;;;;5111265;28;20203;-79
2023/07/16 05:01:25;;;;;;;5.87;5.37;;;;;;;;;;5076947;28;20206;-79
2023/07/16 05:03:52;;;;;;;5.17;4.77;;;;;;;;;;5066708;28;20204;-79
2023/07/16 05:06:19;;;;;;;5.40;4.90;;;;;;;;;;5098559;28;20226;-79
2023/07/16 05:08:46;;;;;;;11.60;5.37;;;;;;;;;;5082231;28;20206;-80
2023/07/16 05:11:14;;;;;;;5.57;5.07;;;;;;;;;;5077046;28;20196;-79
2023/07/16 05:13:42;;;;;;;7.17;4.90;;;;;;;;;;5072713;28;20290;-79
2023/07/16 05:16:09;;;;;;;4.73;4.13;;;;;;;;;;5103910;28;20613;-79
2023/07/16 05:18:37;;;;;;;5.30;4.33;;;;;;;;;;5065701;28;20215;-79
2023/07/16 05:21:04;;;;;;;7.03;4.73;;;;;;;;;;5092962;28;20207;-79
2023/07/16 05:23:31;;;;;;;5.10;4.67;;;;;;;;;;5110156;28;20203;-80
2023/07/16 05:25:58;;;;;;;5.93;4.70;;;;;;;;;;5078083;28;20234;-79
2023/07/16 05:28:25;;;;;;;4.77;4.37;;;;;;;;;;5098368;28;20207;-79
2023/07/16 05:31:01;;;;;;;5.00;4.43;;;;;;;;;;5109483;28;20195;-79
2023/07/16 05:33:28;;;;;;;6.03;5.00;;;;;;;;;;5110241;28;20641;-79
2023/07/16 05:35:55;;;;;;;5.30;4.70;;;;;;;;;;5095129;28;20207;-79
2023/07/16 05:38:22;;;;;;;6.47;4.73;;;;;;;;;;5096507;28;20199;-79
2023/07/16 05:40:49;;;;;;;5.80;5.20;;;;;;;;;;5093384;28;20213;-79
2023/07/16 05:43:16;;;;;;;6.30;4.20;;;;;;;;;;5114371;28;20199;-79
2023/07/16 05:45:43;;;;;;;6.27;4.70;;;;;;;;;;5074054;28;20591;-79
2023/07/16 05:48:12;;;;;;;6.20;4.17;;;;;;;;;;5083757;28;20257;-79
2023/07/16 05:50:39;;;;;;;5.17;4.50;;;;;;;;;;5112930;28;20232;-79
2023/07/16 05:53:06;;;;;;;6.63;4.40;;;;;;;;;;5077716;28;20245;-79
2023/07/16 05:55:34;;;;;;;4.40;4.10;;;;;;;;;;5073492;28;20210;-79
2023/07/16 05:58:01;;;;;;;4.60;3.90;;;;;;;;;;5096424;28;20304;-79
2023/07/16 06:00:28;;;;;;;4.83;4.43;;;;;;;;;;5111818;28;20208;-79
2023/07/16 06:02:55;;;;;;;5.50;4.50;;;;;;;;;;5075369;28;20200;-79
2023/07/16 06:05:26;;;;;;;3.93;3.63;;;;;;;;;;5075661;28;20220;-79
2023/07/16 06:07:53;;;;;;;4.93;3.97;;;;;;;;;;5099684;28;20196;-80
2023/07/16 06:10:20;;;;;;;4.20;3.50;;;;;;;;;;5095221;28;20584;-77
2023/07/16 06:12:47;;;;;;;4.10;3.70;;;;;;;;;;5093013;28;20642;-77
2023/07/16 06:15:14;;;;;;;4.37;4.00;;;;;;;;;;5100216;28;20196;-77
2023/07/16 06:17:41;;;;;;;4.80;3.90;;;;;;;;;;5082340;28;20204;-77
2023/07/16 06:20:09;;;;;;;6.65;3.95;;;;;;;;;;5073287;28;20244;-77
2023/07/16 06:22:38;;;;;;;5.25;3.67;;;;;;;;;;5095068;28;20239;-78
2023/07/16 06:25:06;;;;;;;3.88;3.50;;;;;;;;;;5111245;28;20708;-77
2023/07/16 06:27:33;;;;;;;8.57;3.42;;;;;;;;;;5091225;28;20192;-77
2023/07/16 06:30:00;;;;;;;12.93;11.15;;;;;;;;;;5095629;28;20632;-77
2023/07/16 06:32:27;;;;;;;10.15;6.93;;;;;;;;;;5083029;28;20208;-77
2023/07/16 06:34:54;;;;;;;12.32;8.90;;;;;;;;;;5113520;28;20210;-76
2023/07/16 06:37:23;;;;;;;4.80;4.35;;;;;;;;;;5113389;28;20203;-76
2023/07/16 06:39:52;;;;;;;4.25;3.80;;;;;;;;;;5091179;28;20641;-77
2023/07/16 06:42:19;;;;;;;4.57;4.25;;;;;;;;;;5071825;28;20588;-78
2023/07/16 06:44:46;;;;;;;4.72;4.32;;;;;;;;;;5083961;28;20216;-76
2023/07/16 06:47:13;;;;;;;6.25;3.97;;;;;;;;;;5106526;28;20230;-77
2023/07/16 06:49:40;;;;;;;4.63;3.95;;;;;;;;;;5100068;28;20238;-76
2023/07/16 06:52:08;;;;;;;4.28;3.88;;;;;;;;;;5099660;28;20204;-77
2023/07/16 06:54:36;;;;;;;4.70;4.10;;;;;;;;;;5053429;28;20216;-77
2023/07/16 06:57:05;;;;;;;5.03;4.35;;;;;;;;;;5112114;28;20203;-78
2023/07/16 06:59:33;;;;;;;6.07;4.30;;;;;;;;;;5113490;28;20244;-78
2023/07/16 07:01:59;;;;;;;4.82;4.43;;;;;;;;;;5108850;28;20196;-78
2023/07/16 07:04:27;;;;;;;4.68;4.28;;;;;;;;;;5107138;28;20203;-78
2023/07/16 07:06:53;;;;;;;5.38;4.88;;;;;;;;;;5093915;28;20614;-78
2023/07/16 07:09:21;;;;;;;8.05;4.40;;;;;;;;;;5074185;28;20207;-80
2023/07/16 07:11:48;;;;;;;5.05;4.55;;;;;;;;;;5087108;28;20670;-78
2023/07/16 07:14:16;;;;;;;5.57;5.05;;;;;;;;;;5085661;28;20199;-77
2023/07/16 07:16:43;;;;;;;5.05;4.55;;;;;;;;;;5101571;28;20201;-78
2023/07/16 07:19:11;;;;;;;4.80;4.40;;;;;;;;;;5090787;28;20209;-78
2023/07/16 07:21:38;;;;;;;8.45;4.78;;;;;;;;;;5099742;28;20980;-78
2023/07/16 07:24:06;;;;;;;5.82;5.30;;;;;;;;;;5104433;28;20265;-79
2023/07/16 07:26:33;;;;;;;5.28;4.88;;;;;;;;;;5095696;28;20219;-78
2023/07/16 07:29:00;;;;;;;7.93;6.18;;;;;;;;;;5070685;28;20854;-79
2023/07/16 07:31:28;;;;;;;8.70;5.93;;;;;;;;;;5081216;28;20203;-79
2023/07/16 07:33:57;;;;;;;5.75;5.25;;;;;;;;;;5080164;28;20211;-79
2023/07/16 07:36:24;;;;;;;7.93;5.65;;;;;;;;;;5082165;28;20200;-79
2023/07/16 07:38:51;;;;;;;5.22;4.72;;;;;;;;;;5097768;28;20200;-79
2023/07/16 07:41:18;;;;;;;11.13;6.03;;;;;;;;;;5100534;28;20198;-79
2023/07/16 07:43:45;;;;;;;8.50;5.43;;;;;;;;;;5085739;28;20196;-79
2023/07/16 07:46:12;;;;;;;7.22;5.25;;;;;;;;;;5074605;28;20292;-81
2023/07/16 07:48:41;;;;;;;6.15;4.97;;;;;;;;;;5106592;28;20682;-80
2023/07/16 07:51:08;;;;;;;6.32;4.80;;;;;;;;;;5084937;28;20594;-79
2023/07/16 07:53:35;;;;;;;4.72;4.28;;;;;;;;;;5110963;28;20200;-79
2023/07/16 07:56:02;;;;;;;5.30;4.80;;;;;;;;;;5077135;28;20234;-79
2023/07/16 07:58:29;;;;;;;5.22;4.72;;;;;;;;;;5077565;28;20686;-78
2023/07/16 08:00:56;;;;;;;6.40;5.82;;;;;;;;;;5088619;28;20264;-78
2023/07/16 08:03:25;;;;;;;5.05;4.65;;;;;;;;;;5091520;28;20269;-79
2023/07/16 08:05:53;;;;;;;5.18;4.68;;;;;;;;;;5085135;28;20200;-78
2023/07/16 08:08:20;;;;;;;5.32;4.88;;;;;;;;;;5085540;28;20669;-76
2023/07/16 08:10:48;;;;;;;4.68;4.30;;;;;;;;;;5111634;28;20233;-76
2023/07/16 08:13:15;;;;;;;5.22;4.32;;;;;;;;;;5077107;28;20222;-76
2023/07/16 08:15:42;;;;;;;7.47;4.93;;;;;;;;;;5112249;28;20282;-76
2023/07/16 08:18:10;;;;;;;4.65;4.25;;;;;;;;;;5085252;28;20210;-76
2023/07/16 08:20:37;;;;;;;4.90;4.50;;;;;;;;;;5087744;28;20202;-77
2023/07/16 08:23:06;;;;;;;5.53;5.03;;;;;;;;;;5056147;28;20277;-77
2023/07/16 08:25:33;;;;;;;5.05;4.63;;;;;;;;;;5076386;28;20214;-77
2023/07/16 08:28:02;;;;;;;8.25;4.13;;;;;;;;;;5083814;28;20232;-77
2023/07/16 08:30:30;;;;;;;5.32;4.35;;;;;;;;;;5105809;28;20662;-78
2023/07/16 08:32:57;;;;;;;4.85;4.55;;;;;;;;;;5072579;28;20212;-76
2023/07/16 08:35:24;;;;;;;6.63;4.80;;;;;;;;;;5103954;28;20195;-79
2023/07/16 08:37:51;;;;;;;5.82;5.30;;;;;;;;;;5080244;28;20195;-77
2023/07/16 08:40:21;;;;;;;5.85;5.15;;;;;;;;;;5110691;28;20199;-77
2023/07/16 08:42:48;;;;;;;5.18;4.75;;;;;;;;;;5076712;28;20215;-76
2023/07/16 08:45:16;;;;;;;5.40;4.43;;;;;;;;;;5073046;28;20208;-77
2023/07/16 08:47:43;;;;;;;5.50;5.10;;;;;;;;;;5102387;28;20228;-77
2023/07/16 08:50:11;;;;;;;5.18;4.68;;;;;;;;;;5054431;28;20721;-77
2023/07/16 08:52:39;;;;;;;9.85;8.40;;;;;;;;;;5092361;28;20204;-77
2023/07/16 08:55:07;;;;;;;6.40;5.00;;;;;;;;;;5097244;28;20302;-77
2023/07/16 08:57:36;;;;;;;6.93;4.90;;;;;;;;;;5101868;28;20200;-77
2023/07/16 09:00:05;;;;;;;5.00;4.35;;;;;;;;;;5068574;28;20208;-75
2023/07/16 09:02:32;;;;;;;5.47;4.78;;;;;;;;;;5082496;28;20200;-76
2023/07/16 09:05:00;;;;;;;5.15;4.70;;;;;;;;;;5110643;28;20199;-77
2023/07/16 09:07:27;;;;;;;5.30;4.80;;;;;;;;;;5092606;28;20240;-77
2023/07/16 09:09:59;;;;;;;4.55;4.13;;;;;;;;;;5093643;28;20207;-77
2023/07/16 09:12:27;;;;;;;6.47;4.85;;;;;;;;;;5101747;28;20689;-77
2023/07/16 09:14:55;;;;;;;4.38;3.97;;;;;;;;;;5096891;28;20191;-77
2023/07/16 09:17:25;;;;;;;7.72;4.32;;;;;;;;;;5106543;28;20204;-77
2023/07/16 09:19:53;;;;;;;6.32;5.60;;;;;;;;;;5086987;28;20229;-77
2023/07/16 09:22:45;;;;;;;7.53;4.53;;;;;;;;;;5068548;28;20196;-77
2023/07/16 09:25:13;;;;;;;7.88;5.35;;;;;;;;;;5110632;28;20265;-77
2023/07/16 09:27:40;;;;;;;4.88;4.47;;;;;;;;;;5068280;28;20234;-77
2023/07/16 09:30:16;;;;;;;6.45;4.70;;;;;;;;;;5092324;28;20218;-78
2023/07/16 09:32:43;;;;;;;6.00;4.22;;;;;;;;;;5112223;28;20206;-77
2023/07/16 09:35:11;;;;;;;6.30;4.75;;;;;;;;;;5111563;28;20199;-76
2023/07/16 09:37:38;;;;;;;5.45;4.93;;;;;;;;;;5112067;28;20207;-77
2023/07/16 09:40:08;;;;;;;4.97;4.45;;;;;;;;;;5094167;28;20203;-76
2023/07/16 09:42:38;;;;;;;7.35;4.82;;;;;;;;;;5111817;28;20235;-76
2023/07/16 09:45:12;;;;;;;4.75;4.30;;;;;;;;;;5111343;28;20233;-77
2023/07/16 09:47:39;;;;;;;5.85;4.60;;;;;;;;;;5112359;28;20579;-76
2023/07/16 09:50:07;;;;;;;4.22;3.92;;;;;;;;;;5112019;28;20231;-75
2023/07/16 09:52:34;;;;;;;5.32;4.40;;;;;;;;;;5077058;28;20199;-75
2023/07/16 09:55:03;;;;;;;5.75;4.65;;;;;;;;;;5093815;28;20211;-77
2023/07/16 09:57:35;;;;;;;5.57;5.10;;;;;;;;;;5093142;28;20661;-77
2023/07/16 10:00:05;;;;;;;6.22;4.85;;;;;;;;;;5093987;28;20199;-77
2023/07/16 10:02:35;;;;;;;6.57;4.22;;;;;;;;;;5093585;28;20195;-76
2023/07/16 10:05:13;;;;;;;5.80;5.20;;;;;;;;;;5111596;28;20202;-78
2023/07/16 10:07:40;;;;;;;6.10;3.97;;;;;;;;;;5111817;28;20223;-78
2023/07/16 10:10:10;;;;;;;6.15;4.32;;;;;;;;;;5077297;28;20207;-78
2023/07/16 10:12:38;;;;;;;7.25;4.53;;;;;;;;;;5093542;28;20282;-78
2023/07/16 10:15:07;;;;;;;5.00;4.53;;;;;;;;;;5076761;28;20200;-78
2023/07/16 10:17:36;;;;;;;5.07;4.57;;;;;;;;;;5093683;28;20214;-78
2023/07/16 10:20:10;;;;;;;7.45;4.60;;;;;;;;;;5111600;28;20221;-78
2023/07/16 10:22:38;;;;;;;5.57;4.35;;;;;;;;;;5095330;28;20202;-77
2023/07/16 10:25:10;;;;;;;6.72;4.65;;;;;;;;;;5097829;28;20212;-77
2023/07/16 10:27:37;;;;;;;4.90;4.50;;;;;;;;;;5115373;28;20254;-78
2023/07/16 10:30:06;;;;;;;7.00;5.20;;;;;;;;;;5115856;28;20203;-78
2023/07/16 10:32:35;;;;;;;6.63;5.13;;;;;;;;;;5114946;28;20195;-78
2023/07/16 10:35:03;;;;;;;5.22;4.57;;;;;;;;;;5114877;28;20202;-78
2023/07/16 10:37:30;;;;;;;5.72;5.07;;;;;;;;;;5114439;28;20286;-78
2023/07/16 10:39:59;;;;;;;6.30;4.68;;;;;;;;;;5114380;28;20195;-78
2023/07/16 10:42:28;;;;;;;7.00;4.85;;;;;;;;;;5096851;28;20195;-78
2023/07/16 10:44:57;;;;;;;5.43;4.93;;;;;;;;;;5115530;28;20198;-77
2023/07/16 10:47:25;;;;;;;10.85;5.38;;;;;;;;;;5096617;28;20223;-77
2023/07/16 10:49:54;;;;;;;5.53;5.05;;;;;;;;;;5096811;28;20231;-78
2023/07/16 10:52:24;;;;;;;5.55;5.05;;;;;;;;;;5115065;28;20655;-78
2023/07/16 10:54:54;;;;;;;5.65;5.03;;;;;;;;;;5097213;28;20191;-78
2023/07/16 10:57:21;;;;;;;5.55;4.90;;;;;;;;;;5079974;28;20203;-78
2023/07/16 10:59:49;;;;;;;5.07;4.03;;;;;;;;;;5114117;28;20203;-78
2023/07/16 11:02:17;;;;;;;7.53;5.10;;;;;;;;;;5096689;28;20191;-78
2023/07/16 11:04:45;;;;;;;5.25;4.75;;;;;;;;;;5115431;28;20199;-78
2023/07/16 11:08:05;;;;;;;5.10;4.60;;;;;;;;;;5096272;28;20700;-79
2023/07/16 11:10:33;;;;;;;6.68;5.30;;;;;;;;;;5114216;28;20569;-79
2023/07/16 11:13:01;;;;;;;5.82;4.80;;;;;;;;;;5114250;28;20202;-79
2023/07/16 11:15:35;;;;;;;5.70;4.35;;;;;;;;;;5096725;28;20553;-79
2023/07/16 11:18:02;;;;;;;4.55;4.13;;;;;;;;;;5095629;28;20203;-79
2023/07/16 11:20:30;;;;;;;5.60;4.63;;;;;;;;;;5096090;28;20195;-79
2023/07/16 11:22:59;;;;;;;8.75;5.32;;;;;;;;;;5096287;28;20203;-79
2023/07/16 11:25:26;;;;;;;6.05;5.47;;;;;;;;;;5095888;28;20203;-79
2023/07/16 11:27:57;;;;;;;6.35;4.78;;;;;;;;;;5113376;28;20231;-78
2023/07/16 11:30:24;;;;;;;21.30;5.30;;;;;;;;;;5095712;28;20202;-79
2023/07/16 11:32:52;;;;;;;5.72;5.15;;;;;;;;;;5095720;28;20665;-79
2023/07/16 11:35:20;;;;;;;5.57;5.18;;;;;;;;;;5095929;28;20207;-79
2023/07/16 11:37:47;;;;;;;5.60;4.95;;;;;;;;;;5095672;28;20584;-79
2023/07/16 11:40:17;;;;;;;4.85;4.45;;;;;;;;;;5095937;28;20244;-79
2023/07/16 11:42:44;;;;;;;5.80;4.25;;;;;;;;;;5095166;28;20291;-79
2023/07/16 11:45:19;;;;;;;8.98;4.97;;;;;;;;;;5113229;28;20205;-79
2023/07/16 11:47:46;;;;;;;7.18;4.88;;;;;;;;;;5113175;28;20227;-79
2023/07/16 11:50:14;;;;;;;7.10;4.97;;;;;;;;;;5113549;28;20227;-79
2023/07/16 11:52:41;;;;;;;6.30;5.18;;;;;;;;;;5113548;28;20223;-79
2023/07/16 11:55:09;;;;;;;5.90;4.85;;;;;;;;;;5113530;28;20200;-79
2023/07/16 11:57:36;;;;;;;6.05;4.78;;;;;;;;;;5095178;28;20199;-79
2023/07/16 12:00:04;;;;;;;6.40;5.32;;;;;;;;;;5113553;28;20286;-79
2023/07/16 12:02:33;;;;;;;7.38;5.07;;;;;;;;;;5113228;28;20191;-79
2023/07/16 12:05:00;;;;;;;5.90;5.38;;;;;;;;;;5095122;28;20204;-79
2023/07/16 12:07:34;;;;;;;6.00;5.50;;;;;;;;;;5094931;28;20216;-79
2023/07/16 12:10:02;;;;;;;6.90;5.50;;;;;;;;;;5112908;28;20610;-79
2023/07/16 12:12:29;;;;;;;7.10;4.47;;;;;;;;;;5113488;28;20614;-79
2023/07/16 12:14:56;;;;;;;8.63;6.00;;;;;;;;;;5095086;28;20206;-79
2023/07/16 12:17:24;;;;;;;8.60;5.47;;;;;;;;;;5095164;28;20230;-78
2023/07/16 12:19:53;;;;;;;5.28;4.78;;;;;;;;;;5112446;28;20669;-78
2023/07/16 12:22:20;;;;;;;6.07;5.43;;;;;;;;;;5094583;28;20191;-78
2023/07/16 12:24:47;;;;;;;6.72;5.68;;;;;;;;;;5113019;28;20199;-77
2023/07/16 12:27:16;;;;;;;5.70;5.18;;;;;;;;;;5112622;28;20202;-77
2023/07/16 12:29:43;;;;;;;7.35;5.65;;;;;;;;;;5112915;28;20219;-78
2023/07/16 12:32:10;;;;;;;6.10;5.53;;;;;;;;;;5112508;28;20233;-77
2023/07/16 12:34:37;;;;;;;5.75;5.15;;;;;;;;;;5112374;28;20670;-77
2023/07/16 12:37:07;;;;;;;8.95;5.53;;;;;;;;;;5113233;28;20199;-78
2023/07/16 12:39:34;;;;;;;6.30;5.20;;;;;;;;;;5094765;28;20676;-77
2023/07/16 12:42:01;;;;;;;6.30;5.05;;;;;;;;;;5112218;28;20202;-77
2023/07/16 12:44:28;;;;;;;5.57;5.18;;;;;;;;;;5094120;28;20199;-77
2023/07/16 12:46:55;;;;;;;6.00;5.47;;;;;;;;;;5094427;28;20206;-77
2023/07/16 12:49:22;;;;;;;7.07;6.18;;;;;;;;;;5094079;28;20227;-77
2023/07/16 12:51:49;;;;;;;6.95;5.53;;;;;;;;;;5094964;28;20263;-77
2023/07/16 12:54:18;;;;;;;5.85;5.35;;;;;;;;;;5112376;28;20195;-77
2023/07/16 12:56:45;;;;;;;5.82;5.18;;;;;;;;;;5093997;28;20673;-77
2023/07/16 12:59:12;;;;;;;6.13;5.53;;;;;;;;;;5077462;28;20195;-77
2023/07/16 13:01:39;;;;;;;8.35;5.80;;;;;;;;;;5112073;28;20203;-78
2023/07/16 13:04:06;;;;;;;8.02;5.90;;;;;;;;;;5094351;28;20199;-76
2023/07/16 13:06:33;;;;;;;6.55;5.60;;;;;;;;;;5094483;28;20191;-77
2023/07/16 13:09:00;;;;;;;6.60;5.78;;;;;;;;;;5111936;28;20260;-78
2023/07/16 13:11:29;;;;;;;6.60;5.28;;;;;;;;;;5094343;28;20210;-78
2023/07/16 13:13:56;;;;;;;6.45;5.38;;;;;;;;;;5094329;28;20290;-78
2023/07/16 13:16:25;;;;;;;5.85;5.35;;;;;;;;;;5093915;28;20207;-78
2023/07/16 13:18:52;;;;;;;5.93;5.50;;;;;;;;;;5060989;28;20665;-78
2023/07/16 13:21:19;;;;;;;5.95;5.45;;;;;;;;;;5112406;28;20620;-78
2023/07/16 13:23:46;;;;;;;8.43;5.60;;;;;;;;;;5093674;28;20690;-78
2023/07/16 13:26:13;;;;;;;7.43;6.18;;;;;;;;;;5094031;28;20253;-78
2023/07/16 13:28:42;;;;;;;8.50;5.65;;;;;;;;;;5093732;28;20219;-78
2023/07/16 13:31:09;;;;;;;5.40;5.03;;;;;;;;;;5094519;28;20199;-78
2023/07/16 13:33:37;;;;;;;5.82;5.30;;;;;;;;;;5093617;28;20704;-78
2023/07/16 13:36:04;;;;;;;6.20;5.70;;;;;;;;;;5077102;28;20227;-78
2023/07/16 13:38:31;;;;;;;7.25;5.05;;;;;;;;;;5093871;28;20282;-78
2023/07/16 13:40:58;;;;;;;6.75;5.60;;;;;;;;;;5112249;28;20199;-78
2023/07/16 13:43:25;;;;;;;5.78;4.88;;;;;;;;;;5111618;28;20654;-78
2023/07/16 13:45:54;;;;;;;6.50;5.32;;;;;;;;;;5093900;28;20664;-78
2023/07/16 13:48:21;;;;;;;8.05;5.70;;;;;;;;;;5111680;28;20223;-78
2023/07/16 13:50:48;;;;;;;6.28;5.57;;;;;;;;;;5090276;28;20274;-78
2023/07/16 13:53:15;;;;;;;6.32;5.78;;;;;;;;;;5073775;28;20325;-78
2023/07/16 13:55:43;;;;;;;7.10;5.65;;;;;;;;;;5090673;28;20200;-78
2023/07/16 13:58:10;;;;;;;6.75;5.47;;;;;;;;;;5078015;28;20578;-78
2023/07/16 14:00:37;;;;;;;6.45;5.93;;;;;;;;;;5093928;28;20667;-78
2023/07/16 14:03:07;;;;;;;7.32;6.10;;;;;;;;;;5093932;28;20667;-78
2023/07/16 14:05:38;;;;;;;6.60;5.85;;;;;;;;;;5077312;28;20306;-78
2023/07/16 14:08:06;;;;;;;6.72;5.78;;;;;;;;;;5095772;28;20678;-78
2023/07/16 14:10:33;;;;;;;5.72;5.07;;;;;;;;;;5094131;28;20225;-78
2023/07/16 14:13:00;;;;;;;8.65;5.03;;;;;;;;;;5094050;28;20203;-78
2023/07/16 14:15:29;;;;;;;6.93;5.50;;;;;;;;;;5060363;28;20192;-78
2023/07/16 14:17:56;;;;;;;5.85;5.35;;;;;;;;;;5094825;28;20202;-78
2023/07/16 14:20:25;;;;;;;6.57;5.97;;;;;;;;;;5094923;28;20200;-78
2023/07/16 14:22:52;;;;;;;6.30;5.80;;;;;;;;;;5093555;28;20228;-77
2023/07/16 14:25:19;;;;;;;6.85;6.25;;;;;;;;;;5093480;28;20200;-77
2023/07/16 14:27:49;;;;;;;6.68;6.18;;;;;;;;;;5092962;28;20196;-78
2023/07/16 14:30:16;;;;;;;8.23;6.63;;;;;;;;;;5094436;28;20192;-78
2023/07/16 14:32:43;;;;;;;8.63;6.30;;;;;;;;;;5094902;28;20507;-77
2023/07/16 14:35:12;;;;;;;6.70;6.07;;;;;;;;;;5094783;28;20562;-78
2023/07/16 14:37:40;;;;;;;6.35;5.85;;;;;;;;;;5093787;28;20235;-78
2023/07/16 14:40:08;;;;;;;7.30;6.40;;;;;;;;;;5094273;28;20204;-78
2023/07/16 14:42:36;;;;;;;6.72;5.65;;;;;;;;;;5094474;28;20281;-77
2023/07/16 14:45:04;;;;;;;7.25;6.55;;;;;;;;;;5076824;28;20273;-78
2023/07/16 14:47:31;;;;;;;7.68;5.88;;;;;;;;;;5076543;28;20204;-78